Time;durP1;ratioP1;P1;durP2;ratioP2;P2;SDS_P1;SDS_P2;PMS_P1;PMS_P2;Temp;Humidity;BMP_temperature;BMP_pressure;BME280_temperature;BME280_humidity;BME280_pressure;Samples;Min_cycle;Max_cycle;Signal;HPM_P1;HPM_P2
2023/09/22 00:00:43;;;;;;;4.60;4.20;;;;;;;;;;4940981;28;20236;-88
2023/09/22 00:03:13;;;;;;;4.72;4.28;;;;;;;;;;4958616;28;20218;-89
2023/09/22 00:05:39;;;;;;;5.38;4.97;;;;;;;;;;4958662;28;20220;-90
2023/09/22 00:08:09;;;;;;;5.28;4.80;;;;;;;;;;4958593;28;20222;-84
2023/09/22 00:10:37;;;;;;;5.45;5.00;;;;;;;;;;4942743;28;20262;-92
2023/09/22 00:13:02;;;;;;;6.38;5.78;;;;;;;;;;4958103;28;20223;-84
2023/09/22 00:15:28;;;;;;;6.80;6.20;;;;;;;;;;4976815;28;20211;-84
2023/09/22 00:17:54;;;;;;;6.30;5.78;;;;;;;;;;4962860;28;20227;-88
2023/09/22 00:20:20;;;;;;;6.55;6.05;;;;;;;;;;4976779;28;20225;-88
2023/09/22 00:22:46;;;;;;;6.68;6.18;;;;;;;;;;4956309;29;20219;-87
2023/09/22 00:25:12;;;;;;;7.85;7.30;;;;;;;;;;4947756;28;20223;-89
2023/09/22 00:27:38;;;;;;;7.90;7.30;;;;;;;;;;4949070;28;20218;-88
2023/09/22 00:30:09;;;;;;;8.43;7.72;;;;;;;;;;4943912;28;20739;-87
2023/09/22 00:32:35;;;;;;;8.82;8.02;;;;;;;;;;4941804;29;20234;-90
2023/09/22 00:35:01;;;;;;;8.90;8.10;;;;;;;;;;4961630;28;20241;-89
2023/09/22 00:37:28;;;;;;;9.80;8.95;;;;;;;;;;4914503;28;20210;-90
2023/09/22 00:39:54;;;;;;;9.55;8.85;;;;;;;;;;4963553;29;20282;-90
2023/09/22 00:42:19;;;;;;;9.38;8.68;;;;;;;;;;4948574;28;20230;-87
2023/09/22 00:44:48;;;;;;;9.68;8.73;;;;;;;;;;4954303;28;20223;-90
2023/09/22 00:47:14;;;;;;;9.60;8.80;;;;;;;;;;4959160;28;20250;-89
2023/09/22 00:49:40;;;;;;;10.15;9.35;;;;;;;;;;4940390;28;20779;-87
2023/09/22 00:52:05;;;;;;;9.95;9.07;;;;;;;;;;4938555;28;20215;-89
2023/09/22 00:54:33;;;;;;;9.23;8.52;;;;;;;;;;4928083;29;20805;-88
2023/09/22 00:57:04;;;;;;;9.20;8.50;;;;;;;;;;4951193;28;20231;-88
2023/09/22 00:59:33;;;;;;;8.55;7.95;;;;;;;;;;4938685;28;20237;-87
2023/09/22 01:01:59;;;;;;;8.90;8.13;;;;;;;;;;4935344;28;20230;-88
2023/09/22 01:04:25;;;;;;;9.10;8.30;;;;;;;;;;4925788;28;20215;-91
2023/09/22 01:06:50;;;;;;;9.55;8.65;;;;;;;;;;4960353;28;21186;-89
2023/09/22 01:09:16;;;;;;;9.70;8.82;;;;;;;;;;4939487;28;20231;-90
2023/09/22 01:11:42;;;;;;;8.90;8.15;;;;;;;;;;4953115;28;20230;-88
2023/09/22 01:14:10;;;;;;;8.98;8.30;;;;;;;;;;4923932;28;20259;-88
2023/09/22 01:16:39;;;;;;;8.90;8.20;;;;;;;;;;4948449;28;20242;-88
2023/09/22 01:19:16;;;;;;;8.95;8.10;;;;;;;;;;4919014;28;20238;-88
2023/09/22 01:21:49;;;;;;;8.05;7.35;;;;;;;;;;4941340;28;20484;-90
2023/09/22 01:24:21;;;;;;;8.30;7.60;;;;;;;;;;4940260;28;20218;-90
2023/09/22 01:26:47;;;;;;;8.63;7.93;;;;;;;;;;4940762;28;20245;-91
2023/09/22 01:29:13;;;;;;;9.75;8.90;;;;;;;;;;4945643;28;20227;-91
2023/09/22 01:31:42;;;;;;;9.98;9.13;;;;;;;;;;4941204;28;20265;-90
2023/09/22 01:34:08;;;;;;;9.13;8.32;;;;;;;;;;4923915;28;20223;-88
2023/09/22 01:36:40;;;;;;;9.10;8.43;;;;;;;;;;4940619;28;20246;-91
2023/09/22 01:39:08;;;;;;;8.95;8.25;;;;;;;;;;4935177;28;20242;-89
2023/09/22 01:41:35;;;;;;;8.10;7.60;;;;;;;;;;4942045;29;20211;-87
2023/09/22 01:44:01;;;;;;;8.50;7.75;;;;;;;;;;4932377;28;20243;-90
2023/09/22 01:46:26;;;;;;;9.18;8.43;;;;;;;;;;4969409;28;20242;-90
2023/09/22 01:48:52;;;;;;;9.93;9.02;;;;;;;;;;4924667;29;20234;-87
2023/09/22 01:51:18;;;;;;;9.07;8.38;;;;;;;;;;4929696;28;20707;-88
2023/09/22 01:53:43;;;;;;;9.32;8.57;;;;;;;;;;4914344;29;20243;-88
2023/09/22 01:56:09;;;;;;;7.82;7.32;;;;;;;;;;4955126;28;20226;-89
2023/09/22 01:58:35;;;;;;;9.30;8.43;;;;;;;;;;4914612;29;20307;-89
2023/09/22 02:01:03;;;;;;;9.48;8.68;;;;;;;;;;4952732;28;20269;-88
2023/09/22 02:03:29;;;;;;;8.82;8.13;;;;;;;;;;4909031;29;20233;-91
2023/09/22 02:05:59;;;;;;;9.10;8.30;;;;;;;;;;4939463;29;20226;-89
2023/09/22 02:08:25;;;;;;;9.40;8.60;;;;;;;;;;4967827;28;20219;-86
2023/09/22 02:10:52;;;;;;;9.75;9.05;;;;;;;;;;4915394;29;20661;-87
2023/09/22 02:13:17;;;;;;;9.40;8.60;;;;;;;;;;4928729;28;20231;-90
2023/09/22 02:15:43;;;;;;;10.13;9.32;;;;;;;;;;4927725;29;20274;-87
2023/09/22 02:18:10;;;;;;;10.63;9.73;;;;;;;;;;4936298;28;20233;-88
2023/09/22 02:20:40;;;;;;;9.73;8.90;;;;;;;;;;4923537;29;20242;-88
2023/09/22 02:23:08;;;;;;;10.43;9.60;;;;;;;;;;4918315;28;20229;-88
2023/09/22 02:25:34;;;;;;;10.00;9.20;;;;;;;;;;4916518;29;20231;-85
2023/09/22 02:28:04;;;;;;;11.02;10.13;;;;;;;;;;4938467;28;20227;-90
2023/09/22 02:30:30;;;;;;;10.38;9.48;;;;;;;;;;4904434;29;20227;-85
2023/09/22 02:32:55;;;;;;;10.25;9.52;;;;;;;;;;4922294;29;20283;-87
2023/09/22 02:35:24;;;;;;;10.80;9.98;;;;;;;;;;4949765;28;21479;-87
2023/09/22 02:37:52;;;;;;;10.65;9.65;;;;;;;;;;4924624;29;20232;-87
2023/09/22 02:40:18;;;;;;;11.50;10.40;;;;;;;;;;4957753;28;20321;-90
2023/09/22 02:42:43;;;;;;;10.55;9.75;;;;;;;;;;4915463;29;20246;-88
2023/09/22 02:45:10;;;;;;;10.80;10.00;;;;;;;;;;4922276;28;20223;-86
2023/09/22 02:47:40;;;;;;;10.48;9.55;;;;;;;;;;4940455;28;20231;-87
2023/09/22 02:50:09;;;;;;;11.93;10.73;;;;;;;;;;4938504;28;20665;-88
2023/09/22 02:52:42;;;;;;;11.07;10.02;;;;;;;;;;4938706;28;20215;-88
2023/09/22 02:55:09;;;;;;;11.75;10.85;;;;;;;;;;4912181;29;20259;-85
2023/09/22 02:57:37;;;;;;;12.73;11.65;;;;;;;;;;4948385;28;20215;-88
2023/09/22 03:00:14;;;;;;;12.55;11.23;;;;;;;;;;4930345;28;20230;-86
2023/09/22 03:02:42;;;;;;;12.55;11.57;;;;;;;;;;4944711;28;20294;-86
2023/09/22 03:05:08;;;;;;;12.60;11.60;;;;;;;;;;4937694;28;20224;-87
2023/09/22 03:07:34;;;;;;;13.82;12.90;;;;;;;;;;4924615;29;20231;-87
2023/09/22 03:10:10;;;;;;;14.15;13.05;;;;;;;;;;4941256;28;20230;-88
2023/09/22 03:12:40;;;;;;;15.15;13.90;;;;;;;;;;4923174;29;20218;-87
2023/09/22 03:15:09;;;;;;;14.55;13.30;;;;;;;;;;4938536;28;20597;-87
2023/09/22 03:17:36;;;;;;;15.07;13.77;;;;;;;;;;4906980;29;20247;-87
2023/09/22 03:20:06;;;;;;;14.30;13.20;;;;;;;;;;4936895;28;20652;-87
2023/09/22 03:22:34;;;;;;;15.05;13.70;;;;;;;;;;4923507;28;20249;-89
2023/09/22 03:25:03;;;;;;;15.77;14.45;;;;;;;;;;4943194;28;20310;-87
2023/09/22 03:27:31;;;;;;;14.45;13.35;;;;;;;;;;4940197;29;20285;-87
2023/09/22 03:29:59;;;;;;;14.15;13.05;;;;;;;;;;4942127;28;20226;-88
2023/09/22 03:32:27;;;;;;;13.43;12.38;;;;;;;;;;4931483;28;20215;-88
2023/09/22 03:34:54;;;;;;;13.13;12.07;;;;;;;;;;4924809;29;20234;-88
2023/09/22 03:37:27;;;;;;;13.40;12.30;;;;;;;;;;4935452;28;20227;-86
2023/09/22 03:39:55;;;;;;;13.27;12.25;;;;;;;;;;4940284;28;20305;-88
2023/09/22 03:42:21;;;;;;;13.77;12.57;;;;;;;;;;4930960;28;20226;-87
2023/09/22 03:44:48;;;;;;;13.13;12.02;;;;;;;;;;4938021;29;20207;-86
2023/09/22 03:47:16;;;;;;;13.02;12.02;;;;;;;;;;4948813;28;20265;-87
2023/09/22 03:49:42;;;;;;;11.10;10.30;;;;;;;;;;4954136;29;20825;-84
2023/09/22 03:52:07;;;;;;;11.70;10.63;;;;;;;;;;4926795;28;20626;-87
2023/09/22 03:54:34;;;;;;;11.65;10.55;;;;;;;;;;4937740;29;20227;-86
2023/09/22 03:57:00;;;;;;;10.65;9.80;;;;;;;;;;4952558;28;20207;-90
2023/09/22 04:03:54;;;;;;;9.73;8.93;;;;;;;;;;4969007;28;20294;-86
2023/09/22 04:06:19;;;;;;;9.80;9.00;;;;;;;;;;4981757;28;20249;-86
2023/09/22 04:08:45;;;;;;;9.77;8.88;;;;;;;;;;4949656;29;20294;-86
2023/09/22 04:11:15;;;;;;;8.88;8.23;;;;;;;;;;4949753;28;20235;-86
2023/09/22 04:13:41;;;;;;;9.23;8.55;;;;;;;;;;4915875;29;20223;-86
2023/09/22 04:16:09;;;;;;;8.60;7.80;;;;;;;;;;4922502;28;20254;-84
2023/09/22 04:18:40;;;;;;;8.32;7.65;;;;;;;;;;4957113;28;20226;-87
2023/09/22 04:21:07;;;;;;;8.77;7.63;;;;;;;;;;4922851;28;20226;-86
2023/09/22 04:23:35;;;;;;;7.57;7.07;;;;;;;;;;4935068;29;20266;-84
2023/09/22 04:26:05;;;;;;;7.57;7.03;;;;;;;;;;4952394;28;20235;-87
2023/09/22 04:28:31;;;;;;;9.43;6.70;;;;;;;;;;4948745;28;20225;-86
2023/09/22 04:31:00;;;;;;;7.63;7.03;;;;;;;;;;4937926;29;20272;-86
2023/09/22 04:33:26;;;;;;;7.50;6.85;;;;;;;;;;4943597;28;20614;-89
2023/09/22 04:35:52;;;;;;;7.30;6.70;;;;;;;;;;4924766;29;20215;-87
2023/09/22 04:38:18;;;;;;;7.50;6.88;;;;;;;;;;4937223;28;20224;-87
2023/09/22 04:40:44;;;;;;;7.22;6.72;;;;;;;;;;4911624;29;20234;-84
2023/09/22 04:43:12;;;;;;;8.57;6.78;;;;;;;;;;4940773;28;20226;-90
2023/09/22 04:45:40;;;;;;;6.80;6.22;;;;;;;;;;4924242;29;20235;-87
2023/09/22 04:48:06;;;;;;;6.53;5.97;;;;;;;;;;4939571;28;20250;-87
2023/09/22 04:50:32;;;;;;;7.75;6.97;;;;;;;;;;4937904;28;20258;-86
2023/09/22 04:53:01;;;;;;;7.00;6.40;;;;;;;;;;4913552;29;20231;-86
2023/09/22 04:55:29;;;;;;;6.25;5.85;;;;;;;;;;4939368;28;21011;-88
2023/09/22 04:57:58;;;;;;;6.85;5.10;;;;;;;;;;4940570;28;20247;-88
2023/09/22 05:00:24;;;;;;;5.18;4.82;;;;;;;;;;4947370;28;20291;-86
2023/09/22 05:02:52;;;;;;;5.40;4.93;;;;;;;;;;4960132;28;20250;-85
2023/09/22 05:05:19;;;;;;;5.28;4.88;;;;;;;;;;4942729;28;20226;-87
2023/09/22 05:07:47;;;;;;;4.90;4.50;;;;;;;;;;4935290;28;20226;-88
2023/09/22 05:10:13;;;;;;;4.72;4.32;;;;;;;;;;4956550;28;20215;-87
2023/09/22 05:12:39;;;;;;;3.97;3.67;;;;;;;;;;4956956;28;20263;-85
2023/09/22 05:15:05;;;;;;;5.30;3.90;;;;;;;;;;4946537;28;20212;-87
2023/09/22 05:17:30;;;;;;;4.50;3.75;;;;;;;;;;4919879;29;20226;-87
2023/09/22 05:19:56;;;;;;;3.85;3.55;;;;;;;;;;4925287;28;20223;-87
2023/09/22 05:22:22;;;;;;;4.03;3.60;;;;;;;;;;4955279;28;20975;-88
2023/09/22 05:24:48;;;;;;;7.50;3.90;;;;;;;;;;4938805;28;20223;-86
2023/09/22 05:27:16;;;;;;;3.30;3.00;;;;;;;;;;4930590;28;20230;-86
2023/09/22 05:29:42;;;;;;;3.72;3.42;;;;;;;;;;4957666;28;20593;-87
2023/09/22 05:32:08;;;;;;;3.38;3.10;;;;;;;;;;4951599;28;20226;-88
2023/09/22 05:34:34;;;;;;;3.45;3.25;;;;;;;;;;4924982;29;20233;-88
2023/09/22 05:37:00;;;;;;;3.38;2.63;;;;;;;;;;4919231;29;20214;-87
2023/09/22 05:39:26;;;;;;;3.33;3.13;;;;;;;;;;4911331;28;20231;-88
2023/09/22 05:41:52;;;;;;;2.85;2.65;;;;;;;;;;4942839;28;20230;-87
2023/09/22 05:44:20;;;;;;;3.25;2.83;;;;;;;;;;4922706;28;20215;-86
2023/09/22 05:46:45;;;;;;;3.50;3.20;;;;;;;;;;4969499;28;20230;-87
2023/09/22 05:49:15;;;;;;;4.28;3.72;;;;;;;;;;4941220;28;20238;-86
2023/09/22 05:51:41;;;;;;;2.97;2.78;;;;;;;;;;4959181;28;20222;-87
2023/09/22 05:54:07;;;;;;;3.58;3.13;;;;;;;;;;4940503;28;20278;-88
2023/09/22 05:56:36;;;;;;;3.60;3.30;;;;;;;;;;4930611;29;20231;-89
2023/09/22 05:59:03;;;;;;;3.30;3.05;;;;;;;;;;4944292;28;20329;-78
2023/09/22 06:01:30;;;;;;;3.40;3.20;;;;;;;;;;4951471;28;20230;-78
2023/09/22 06:03:59;;;;;;;3.42;3.17;;;;;;;;;;4967355;28;20211;-79
2023/09/22 06:06:27;;;;;;;3.95;3.65;;;;;;;;;;4954700;28;20241;-79
2023/09/22 06:08:54;;;;;;;4.30;4.00;;;;;;;;;;4954923;28;20231;-80
2023/09/22 06:11:20;;;;;;;3.63;3.25;;;;;;;;;;4953424;28;20639;-79
2023/09/22 06:13:48;;;;;;;3.65;3.45;;;;;;;;;;4959854;28;20218;-79
2023/09/22 06:16:14;;;;;;;3.80;3.50;;;;;;;;;;4952758;28;20227;-81
2023/09/22 06:18:40;;;;;;;4.32;4.03;;;;;;;;;;4928100;28;20231;-80
2023/09/22 06:21:06;;;;;;;4.13;3.72;;;;;;;;;;4958403;28;20226;-79
2023/09/22 06:23:31;;;;;;;3.90;3.47;;;;;;;;;;4951825;28;20231;-79
2023/09/22 06:26:03;;;;;;;4.70;4.10;;;;;;;;;;4971674;28;20574;-80
2023/09/22 06:28:35;;;;;;;3.92;3.63;;;;;;;;;;4912136;29;20231;-79
2023/09/22 06:31:04;;;;;;;5.38;3.70;;;;;;;;;;4957059;28;20223;-81
2023/09/22 06:33:32;;;;;;;2.92;2.72;;;;;;;;;;4929459;29;20246;-79
2023/09/22 06:35:58;;;;;;;5.15;3.00;;;;;;;;;;4954692;28;20238;-79
2023/09/22 06:38:24;;;;;;;3.95;3.13;;;;;;;;;;4952672;28;20308;-78
2023/09/22 06:40:54;;;;;;;3.55;3.25;;;;;;;;;;4923439;28;20234;-80
2023/09/22 06:43:23;;;;;;;3.65;3.45;;;;;;;;;;4943075;28;20233;-79
2023/09/22 06:45:52;;;;;;;3.10;2.90;;;;;;;;;;4952588;28;20226;-79
2023/09/22 06:48:26;;;;;;;3.85;2.60;;;;;;;;;;4938371;28;20241;-77
2023/09/22 06:50:57;;;;;;;3.22;2.92;;;;;;;;;;4971893;28;20227;-79
2023/09/22 06:53:24;;;;;;;3.08;2.83;;;;;;;;;;4943361;28;20215;-80
2023/09/22 06:56:06;;;;;;;3.40;3.10;;;;;;;;;;4941782;28;20206;-79
2023/09/22 06:58:33;;;;;;;3.95;3.63;;;;;;;;;;4934138;28;20238;-78
2023/09/22 07:01:16;;;;;;;3.00;2.80;;;;;;;;;;4937352;29;20330;-81
2023/09/22 07:03:48;;;;;;;3.60;3.30;;;;;;;;;;4966216;28;20643;-80
2023/09/22 07:06:16;;;;;;;5.07;3.30;;;;;;;;;;4943080;28;20834;-79
2023/09/22 07:08:45;;;;;;;3.38;3.08;;;;;;;;;;4954231;28;20237;-80
2023/09/22 07:11:11;;;;;;;5.13;3.28;;;;;;;;;;4968856;28;20226;-80
2023/09/22 07:13:40;;;;;;;3.13;2.92;;;;;;;;;;4935589;29;20226;-79
2023/09/22 07:16:09;;;;;;;3.45;3.15;;;;;;;;;;4956091;28;20803;-80
2023/09/22 07:18:34;;;;;;;3.33;3.03;;;;;;;;;;4953622;28;20245;-78
2023/09/22 07:21:02;;;;;;;3.50;3.13;;;;;;;;;;4921530;29;20219;-80
2023/09/22 07:23:30;;;;;;;3.10;2.90;;;;;;;;;;4936254;28;20217;-78
2023/09/22 07:25:59;;;;;;;3.22;2.80;;;;;;;;;;4930478;28;20237;-79
2023/09/22 07:28:27;;;;;;;3.33;3.08;;;;;;;;;;4958351;28;20219;-80
2023/09/22 07:30:53;;;;;;;3.17;2.97;;;;;;;;;;4953037;28;20940;-80
2023/09/22 07:33:19;;;;;;;3.33;3.10;;;;;;;;;;4951250;28;20210;-79
2023/09/22 07:35:50;;;;;;;3.40;3.00;;;;;;;;;;4952723;28;20222;-80
2023/09/22 07:38:19;;;;;;;3.75;3.10;;;;;;;;;;4967111;28;20270;-80
2023/09/22 07:40:45;;;;;;;3.47;3.08;;;;;;;;;;4958206;28;20704;-78
2023/09/22 07:43:16;;;;;;;3.92;3.55;;;;;;;;;;4949862;28;20253;-82
2023/09/22 07:45:43;;;;;;;4.05;3.75;;;;;;;;;;4953224;28;20251;-80
2023/09/22 07:48:09;;;;;;;3.85;3.53;;;;;;;;;;4929637;28;20593;-79
2023/09/22 07:50:36;;;;;;;3.78;3.47;;;;;;;;;;4952865;28;20238;-79
2023/09/22 07:53:04;;;;;;;3.13;2.85;;;;;;;;;;4950998;28;20703;-80
2023/09/22 07:55:32;;;;;;;6.28;3.70;;;;;;;;;;4950024;28;20240;-79
2023/09/22 07:58:03;;;;;;;3.50;3.20;;;;;;;;;;4953014;28;20217;-79
2023/09/22 08:00:29;;;;;;;3.63;3.25;;;;;;;;;;4950628;28;20230;-78
2023/09/22 08:02:54;;;;;;;3.35;3.13;;;;;;;;;;4949514;28;20257;-79
2023/09/22 08:05:20;;;;;;;3.67;2.90;;;;;;;;;;4965457;28;20702;-78
2023/09/22 08:07:47;;;;;;;3.72;3.03;;;;;;;;;;4948111;28;20759;-79
2023/09/22 08:10:17;;;;;;;4.65;3.72;;;;;;;;;;4963374;28;20215;-78
2023/09/22 08:12:43;;;;;;;3.60;3.30;;;;;;;;;;4951832;28;20245;-78
2023/09/22 08:15:09;;;;;;;3.80;3.50;;;;;;;;;;4928290;28;20238;-78
2023/09/22 08:17:35;;;;;;;3.63;3.33;;;;;;;;;;4942873;28;20222;-81
2023/09/22 08:20:01;;;;;;;3.38;3.08;;;;;;;;;;4949074;28;20272;-78
2023/09/22 08:22:26;;;;;;;3.38;2.90;;;;;;;;;;4968219;28;20249;-89
2023/09/22 08:24:53;;;;;;;3.10;2.80;;;;;;;;;;4940126;28;20246;-87
2023/09/22 08:27:19;;;;;;;3.38;2.40;;;;;;;;;;4957553;28;20225;-86
2023/09/22 08:29:47;;;;;;;2.55;2.35;;;;;;;;;;4955810;28;20242;-87
2023/09/22 08:32:16;;;;;;;3.97;2.83;;;;;;;;;;4927064;28;20708;-85
2023/09/22 08:34:44;;;;;;;2.30;2.10;;;;;;;;;;4948870;28;20231;-87
2023/09/22 08:37:10;;;;;;;2.78;2.58;;;;;;;;;;4938653;28;20227;-86
2023/09/22 08:39:38;;;;;;;2.83;2.30;;;;;;;;;;4939978;29;20719;-86
2023/09/22 08:42:06;;;;;;;2.63;2.30;;;;;;;;;;4908689;28;20211;-86
2023/09/22 08:44:34;;;;;;;9.30;2.50;;;;;;;;;;4918690;29;20248;-87
2023/09/22 08:47:00;;;;;;;2.65;2.30;;;;;;;;;;4931758;29;20227;-86
2023/09/22 08:49:26;;;;;;;3.70;2.40;;;;;;;;;;4941942;28;20227;-86
2023/09/22 08:51:51;;;;;;;2.55;2.20;;;;;;;;;;4957498;28;20258;-87
2023/09/22 08:54:18;;;;;;;3.05;2.17;;;;;;;;;;4944998;28;20238;-87
2023/09/22 08:56:48;;;;;;;4.53;2.58;;;;;;;;;;4946307;28;20223;-76
2023/09/22 08:59:13;;;;;;;2.20;2.00;;;;;;;;;;4933025;28;20242;-79
2023/09/22 09:01:39;;;;;;;2.58;2.33;;;;;;;;;;4969942;28;20203;-79
2023/09/22 09:04:30;;;;;;;2.55;2.10;;;;;;;;;;4954479;28;20230;-78
2023/09/22 09:07:04;;;;;;;2.72;2.40;;;;;;;;;;4950182;28;20239;-78
2023/09/22 09:09:47;;;;;;;2.53;2.22;;;;;;;;;;4955580;28;20226;-78
2023/09/22 09:12:13;;;;;;;2.65;2.45;;;;;;;;;;4931504;28;20810;-77
2023/09/22 09:14:46;;;;;;;2.70;2.45;;;;;;;;;;4969075;28;20202;-78
2023/09/22 09:17:19;;;;;;;3.25;2.03;;;;;;;;;;4939096;28;20237;-77
2023/09/22 09:20:05;;;;;;;3.28;2.70;;;;;;;;;;4954260;28;20704;-78
2023/09/22 09:22:38;;;;;;;2.30;2.10;;;;;;;;;;4935088;29;20226;-78
2023/09/22 09:25:09;;;;;;;6.65;2.40;;;;;;;;;;4952242;28;20658;-78
2023/09/22 09:27:35;;;;;;;2.53;2.33;;;;;;;;;;4949154;28;20222;-80
2023/09/22 09:30:13;;;;;;;2.63;2.42;;;;;;;;;;4951035;28;20233;-78
2023/09/22 09:32:40;;;;;;;3.35;2.85;;;;;;;;;;4954013;28;20309;-80
2023/09/22 09:35:06;;;;;;;4.18;2.55;;;;;;;;;;4905997;28;20242;-79
2023/09/22 09:37:32;;;;;;;2.30;2.10;;;;;;;;;;4953044;28;20302;-79
2023/09/22 09:39:58;;;;;;;3.53;2.75;;;;;;;;;;4968518;28;20227;-78
2023/09/22 09:42:24;;;;;;;3.10;2.55;;;;;;;;;;4922641;28;20618;-77
2023/09/22 09:44:54;;;;;;;2.95;2.67;;;;;;;;;;4938662;28;20711;-77
2023/09/22 09:47:23;;;;;;;2.90;2.70;;;;;;;;;;4968731;28;20218;-77
2023/09/22 09:49:58;;;;;;;4.10;2.83;;;;;;;;;;4969463;28;20730;-78
2023/09/22 09:52:39;;;;;;;5.05;2.75;;;;;;;;;;4967743;28;20256;-78
2023/09/22 09:55:10;;;;;;;2.40;2.20;;;;;;;;;;4952515;28;20238;-78
2023/09/22 09:57:43;;;;;;;5.28;2.50;;;;;;;;;;4928657;29;20238;-78
2023/09/22 10:00:19;;;;;;;2.78;2.20;;;;;;;;;;4959304;28;20230;-79
2023/09/22 10:02:48;;;;;;;3.90;2.30;;;;;;;;;;4963115;28;20233;-76
2023/09/22 10:05:18;;;;;;;2.85;2.28;;;;;;;;;;4960363;28;20705;-76
2023/09/22 10:07:46;;;;;;;2.92;2.17;;;;;;;;;;4958196;28;20238;-76
2023/09/22 10:10:20;;;;;;;2.08;1.83;;;;;;;;;;4941764;28;20215;-76
2023/09/22 10:12:46;;;;;;;5.78;2.30;;;;;;;;;;4924698;29;20234;-76
2023/09/22 10:15:13;;;;;;;3.72;2.03;;;;;;;;;;4928892;28;20297;-76
2023/09/22 10:17:39;;;;;;;3.20;1.90;;;;;;;;;;4977554;28;20285;-77
2023/09/22 10:20:10;;;;;;;2.58;1.92;;;;;;;;;;4973256;28;20223;-77
2023/09/22 10:22:39;;;;;;;1.50;1.40;;;;;;;;;;4979052;28;20308;-77
2023/09/22 10:25:13;;;;;;;4.53;1.77;;;;;;;;;;4953788;28;20260;-80
2023/09/22 10:28:00;;;;;;;2.55;1.50;;;;;;;;;;4978241;28;20301;-79
2023/09/22 10:30:46;;;;;;;2.53;1.40;;;;;;;;;;4959187;28;20340;-78
2023/09/22 10:33:25;;;;;;;2.70;1.30;;;;;;;;;;4931058;28;20293;-81
2023/09/22 10:35:57;;;;;;;1.98;1.40;;;;;;;;;;4970196;28;20259;-79
2023/09/22 10:38:22;;;;;;;1.30;1.10;;;;;;;;;;4977416;28;20211;-79
2023/09/22 10:41:00;;;;;;;1.48;1.27;;;;;;;;;;4952040;28;20230;-78
2023/09/22 10:43:28;;;;;;;3.42;1.40;;;;;;;;;;4960907;28;20223;-78
2023/09/22 10:45:54;;;;;;;1.73;1.10;;;;;;;;;;4958202;28;20235;-79
2023/09/22 10:48:20;;;;;;;1.70;1.10;;;;;;;;;;4952674;28;20268;-78
2023/09/22 10:50:49;;;;;;;1.73;1.30;;;;;;;;;;4946238;29;20230;-81
2023/09/22 10:53:17;;;;;;;2.28;1.23;;;;;;;;;;4957589;28;20239;-79
2023/09/22 10:55:48;;;;;;;1.08;0.88;;;;;;;;;;4958075;28;20250;-76
2023/09/22 10:58:21;;;;;;;2.03;0.80;;;;;;;;;;4974824;28;20249;-77
2023/09/22 11:00:56;;;;;;;0.70;0.70;;;;;;;;;;4969489;28;20238;-79
2023/09/22 11:03:23;;;;;;;1.60;1.10;;;;;;;;;;4957600;28;20255;-78
2023/09/22 11:06:06;;;;;;;1.00;0.80;;;;;;;;;;4937536;28;20239;-78
2023/09/22 11:08:34;;;;;;;2.80;0.88;;;;;;;;;;4968864;28;20245;-78
2023/09/22 11:11:00;;;;;;;1.38;0.90;;;;;;;;;;4955959;28;20259;-79
2023/09/22 11:13:27;;;;;;;1.08;0.70;;;;;;;;;;4942205;28;20290;-78
2023/09/22 11:16:01;;;;;;;2.97;1.08;;;;;;;;;;4952853;29;20231;-78
2023/09/22 11:18:36;;;;;;;2.42;0.98;;;;;;;;;;4949614;28;20286;-78
2023/09/22 11:21:10;;;;;;;1.77;0.80;;;;;;;;;;4951797;28;20226;-78
2023/09/22 11:23:36;;;;;;;1.77;1.17;;;;;;;;;;4952694;28;20325;-78
2023/09/22 11:26:12;;;;;;;1.77;0.80;;;;;;;;;;4951318;28;20688;-78
2023/09/22 11:28:41;;;;;;;1.75;0.88;;;;;;;;;;4931748;28;20806;-80
2023/09/22 11:31:19;;;;;;;0.80;0.80;;;;;;;;;;4945305;28;20638;-78
2023/09/22 11:33:45;;;;;;;3.08;0.85;;;;;;;;;;4969857;28;20223;-78
2023/09/22 11:36:11;;;;;;;1.00;0.90;;;;;;;;;;4951741;28;20250;-78
2023/09/22 11:38:40;;;;;;;0.95;0.80;;;;;;;;;;4968440;28;20231;-78
2023/09/22 11:41:14;;;;;;;1.42;0.93;;;;;;;;;;4950137;28;20227;-76
2023/09/22 11:43:43;;;;;;;3.75;1.10;;;;;;;;;;4949614;28;20262;-81
2023/09/22 11:46:14;;;;;;;1.60;0.80;;;;;;;;;;4967352;28;20226;-79
2023/09/22 11:49:02;;;;;;;1.10;1.00;;;;;;;;;;4952446;28;20230;-78
2023/09/22 11:51:43;;;;;;;2.75;0.90;;;;;;;;;;4946841;28;20219;-80
2023/09/22 11:54:09;;;;;;;1.13;0.85;;;;;;;;;;4964359;28;20222;-78
2023/09/22 11:56:37;;;;;;;1.00;0.60;;;;;;;;;;4949853;28;20214;-80
2023/09/22 11:59:06;;;;;;;1.45;0.60;;;;;;;;;;4943821;28;20230;-80
2023/09/22 12:01:34;;;;;;;0.90;0.70;;;;;;;;;;4955646;28;20230;-79
2023/09/22 12:04:04;;;;;;;1.10;0.80;;;;;;;;;;4935853;29;20230;-77
2023/09/22 12:06:31;;;;;;;1.00;0.60;;;;;;;;;;4961121;28;20223;-80
2023/09/22 12:09:03;;;;;;;1.00;0.77;;;;;;;;;;4956348;28;20223;-79
2023/09/22 12:11:31;;;;;;;1.17;0.80;;;;;;;;;;4955349;28;20242;-81
2023/09/22 12:14:00;;;;;;;0.77;0.70;;;;;;;;;;4967565;28;20224;-77
2023/09/22 12:16:26;;;;;;;0.75;0.73;;;;;;;;;;4939096;28;20249;-77
2023/09/22 12:18:52;;;;;;;1.40;0.80;;;;;;;;;;4938268;28;20207;-79
2023/09/22 12:21:21;;;;;;;0.98;0.70;;;;;;;;;;4955683;28;20218;-80
2023/09/22 12:23:47;;;;;;;0.80;0.80;;;;;;;;;;4974480;28;20220;-79
2023/09/22 12:26:12;;;;;;;0.50;0.50;;;;;;;;;;4969405;28;20598;-80
2023/09/22 12:28:40;;;;;;;0.50;0.50;;;;;;;;;;4957703;28;20219;-81
2023/09/22 12:31:09;;;;;;;2.38;0.82;;;;;;;;;;4955629;28;20227;-80
2023/09/22 12:33:36;;;;;;;1.42;0.85;;;;;;;;;;4957489;28;20223;-79
2023/09/22 12:36:02;;;;;;;0.70;0.70;;;;;;;;;;4950305;28;20227;-78
2023/09/22 12:38:27;;;;;;;1.58;0.80;;;;;;;;;;4956454;28;20226;-78
2023/09/22 12:40:57;;;;;;;1.60;0.60;;;;;;;;;;4971852;28;20239;-80
2023/09/22 12:43:25;;;;;;;1.00;0.80;;;;;;;;;;4949101;28;20264;-79
2023/09/22 12:45:52;;;;;;;0.73;0.63;;;;;;;;;;4955524;28;20305;-77
2023/09/22 12:48:17;;;;;;;0.98;0.73;;;;;;;;;;4948344;28;20266;-78
2023/09/22 12:50:52;;;;;;;1.45;0.60;;;;;;;;;;4956850;28;20322;-78
2023/09/22 12:53:20;;;;;;;0.63;0.60;;;;;;;;;;4971144;28;20279;-79
2023/09/22 12:55:57;;;;;;;0.70;0.60;;;;;;;;;;4974587;28;20890;-80
2023/09/22 12:58:26;;;;;;;3.38;0.93;;;;;;;;;;4956640;28;20233;-80
2023/09/22 13:00:58;;;;;;;2.35;0.68;;;;;;;;;;4947024;28;20230;-78
2023/09/22 13:03:27;;;;;;;1.38;0.75;;;;;;;;;;4953708;28;20234;-79
2023/09/22 13:05:53;;;;;;;2.08;0.77;;;;;;;;;;4956382;29;20237;-80
2023/09/22 13:08:21;;;;;;;1.00;0.70;;;;;;;;;;4955143;28;20222;-81
2023/09/22 13:10:47;;;;;;;1.75;0.65;;;;;;;;;;4931400;29;20218;-80
2023/09/22 13:13:13;;;;;;;0.82;0.60;;;;;;;;;;4939801;28;20233;-76
2023/09/22 13:15:46;;;;;;;0.73;0.73;;;;;;;;;;4938774;28;20230;-80
2023/09/22 13:18:15;;;;;;;0.63;0.50;;;;;;;;;;4964130;28;20285;-79
2023/09/22 13:20:45;;;;;;;0.95;0.90;;;;;;;;;;4955135;28;20333;-79
2023/09/22 13:23:19;;;;;;;0.68;0.50;;;;;;;;;;4940543;28;20235;-77
2023/09/22 13:25:48;;;;;;;0.63;0.60;;;;;;;;;;4962859;28;20313;-80
2023/09/22 13:28:15;;;;;;;0.60;0.60;;;;;;;;;;4954709;28;20311;-78
2023/09/22 13:30:52;;;;;;;1.00;0.75;;;;;;;;;;4941200;29;20250;-81
2023/09/22 13:33:20;;;;;;;0.63;0.60;;;;;;;;;;4967900;28;20277;-81
2023/09/22 13:35:55;;;;;;;2.80;0.55;;;;;;;;;;4963617;28;20638;-78
2023/09/22 13:38:23;;;;;;;1.10;0.75;;;;;;;;;;4966126;28;20225;-79
2023/09/22 13:40:50;;;;;;;1.33;0.70;;;;;;;;;;4958085;28;20751;-80
2023/09/22 13:43:22;;;;;;;0.60;0.50;;;;;;;;;;4954444;28;20238;-79
2023/09/22 13:45:48;;;;;;;1.02;0.50;;;;;;;;;;4946749;28;20294;-82
2023/09/22 13:48:16;;;;;;;0.98;0.50;;;;;;;;;;4968948;28;20298;-82
2023/09/22 13:50:52;;;;;;;1.15;0.80;;;;;;;;;;4954775;28;20230;-80
2023/09/22 13:53:21;;;;;;;1.05;0.60;;;;;;;;;;4958535;28;20703;-80
2023/09/22 13:55:46;;;;;;;1.55;0.60;;;;;;;;;;4970088;28;20231;-80
2023/09/22 13:58:12;;;;;;;0.80;0.60;;;;;;;;;;4954917;28;20222;-79
2023/09/22 14:00:37;;;;;;;1.55;1.05;;;;;;;;;;4971598;28;20233;-80
2023/09/22 14:03:03;;;;;;;0.50;0.50;;;;;;;;;;4967606;28;20242;-78
2023/09/22 14:05:31;;;;;;;3.25;0.90;;;;;;;;;;4938831;29;20325;-79
2023/09/22 14:07:57;;;;;;;1.00;0.70;;;;;;;;;;4941013;28;20233;-80
2023/09/22 14:10:24;;;;;;;1.13;0.60;;;;;;;;;;4958386;28;20234;-79
2023/09/22 14:12:50;;;;;;;1.40;0.57;;;;;;;;;;4956082;28;20218;-78
2023/09/22 14:15:24;;;;;;;1.35;0.50;;;;;;;;;;4953790;28;20222;-82
2023/09/22 14:17:50;;;;;;;1.00;0.57;;;;;;;;;;4972447;28;20226;-78
2023/09/22 14:20:20;;;;;;;0.77;0.50;;;;;;;;;;4951539;28;20719;-81
2023/09/22 14:22:48;;;;;;;1.08;0.80;;;;;;;;;;4953641;28;20234;-78
2023/09/22 14:25:13;;;;;;;0.65;0.40;;;;;;;;;;4928551;28;20253;-80
2023/09/22 14:27:42;;;;;;;0.65;0.50;;;;;;;;;;4932223;28;20227;-80
2023/09/22 14:30:10;;;;;;;1.55;0.60;;;;;;;;;;4969091;28;20234;-79
2023/09/22 14:32:36;;;;;;;1.85;0.70;;;;;;;;;;4929780;28;20250;-81
2023/09/22 14:35:02;;;;;;;2.53;0.60;;;;;;;;;;4939587;29;20228;-78
2023/09/22 14:37:27;;;;;;;0.93;0.52;;;;;;;;;;4953760;28;20222;-78
2023/09/22 14:39:56;;;;;;;0.77;0.60;;;;;;;;;;4946728;28;20231;-78
2023/09/22 14:42:23;;;;;;;0.98;0.70;;;;;;;;;;4941111;28;21006;-79
2023/09/22 14:44:51;;;;;;;0.80;0.50;;;;;;;;;;4956370;28;20785;-78
2023/09/22 14:47:19;;;;;;;2.95;0.70;;;;;;;;;;4955671;28;20254;-79
2023/09/22 14:49:45;;;;;;;0.73;0.73;;;;;;;;;;4956512;28;20227;-79
2023/09/22 14:52:11;;;;;;;0.65;0.60;;;;;;;;;;4955065;28;20238;-79